Time;durP1;ratioP1;P1;durP2;ratioP2;P2;SDS_P1;SDS_P2;PMS_P1;PMS_P2;Temp;Humidity;BMP_temperature;BMP_pressure;BME280_temperature;BME280_humidity;BME280_pressure;Samples;Min_cycle;Max_cycle;Signal;HPM_P1;HPM_P2
2022/10/04 00:00:35;;;;;;;9.93;5.50;;;;;;;11.46;78.48;101126.94;5057701;28;20399;-74
2022/10/04 00:03:07;;;;;;;7.75;5.00;;;;;;;11.49;77.96;101124.84;5046026;28;20386;-74
2022/10/04 00:05:33;;;;;;;8.45;4.82;;;;;;;11.45;78.19;101133.47;5051173;28;20746;-74
2022/10/04 00:08:25;;;;;;;10.73;4.87;;;;;;;11.45;78.05;101119.06;5057908;28;20557;-74
2022/10/04 00:11:01;;;;;;;8.07;4.70;;;;;;;11.38;78.01;101113.75;5045699;28;20401;-74
2022/10/04 00:13:28;;;;;;;10.10;4.95;;;;;;;11.37;78.00;101114.78;5054786;28;20451;-74
2022/10/04 00:15:54;;;;;;;9.33;4.53;;;;;;;11.33;77.97;101113.59;5045868;28;20495;-74
2022/10/04 00:18:22;;;;;;;8.73;5.50;;;;;;;11.35;77.95;101119.63;5038106;28;20417;-74
2022/10/04 00:20:49;;;;;;;8.38;5.07;;;;;;;11.36;77.73;101109.63;5054531;28;20417;-74
2022/10/04 00:23:23;;;;;;;9.82;4.93;;;;;;;11.35;77.75;101116.09;5054601;28;20382;-74
2022/10/04 00:25:52;;;;;;;13.75;5.22;;;;;;;11.32;77.99;101111.13;5045966;28;20414;-74
2022/10/04 00:28:20;;;;;;;11.10;5.15;;;;;;;11.34;77.69;101109.84;5044952;28;20390;-74
2022/10/04 00:31:28;;;;;;;8.48;5.20;;;;;;;11.30;77.72;101100.50;5058691;28;20393;-74
2022/10/04 00:34:02;;;;;;;8.53;4.80;;;;;;;11.20;78.16;101102.97;5030167;28;20819;-74
2022/10/04 00:36:49;;;;;;;7.50;4.40;;;;;;;11.21;78.25;101103.78;5054279;28;20944;-74
2022/10/04 00:39:23;;;;;;;12.23;5.27;;;;;;;11.20;78.08;101099.41;5041834;28;20459;-74
2022/10/04 00:41:48;;;;;;;11.82;4.95;;;;;;;11.19;77.99;101097.78;5058917;28;20519;-74
2022/10/04 00:44:26;;;;;;;27.87;5.77;;;;;;;11.17;78.05;101095.28;5055800;28;20410;-74
2022/10/04 00:46:55;;;;;;;8.53;4.83;;;;;;;11.15;78.21;101102.03;5058023;28;20397;-74
2022/10/04 00:49:24;;;;;;;15.15;5.13;;;;;;;11.10;78.40;101107.34;5054066;28;20878;-74
2022/10/04 00:52:05;;;;;;;10.80;5.00;;;;;;;11.08;78.42;101101.28;5054484;28;20391;-74
2022/10/04 00:54:37;;;;;;;11.82;5.22;;;;;;;11.11;78.36;101109.78;5042888;28;20877;-74
2022/10/04 00:57:35;;;;;;;7.30;4.78;;;;;;;11.08;78.19;101102.13;5044810;28;20379;-74
2022/10/04 01:00:06;;;;;;;7.77;4.80;;;;;;;11.02;78.41;101105.78;5038176;28;20410;-74
2022/10/04 01:02:37;;;;;;;7.10;4.30;;;;;;;11.00;78.33;101104.34;5057635;28;20895;-74
2022/10/04 01:05:09;;;;;;;10.55;4.55;;;;;;;10.98;78.77;101104.56;5060183;28;20809;-74
2022/10/04 01:07:42;;;;;;;7.90;4.80;;;;;;;10.98;78.54;101090.19;5045797;28;20410;-74
2022/10/04 01:10:13;;;;;;;9.48;5.20;;;;;;;10.97;78.68;101099.38;5050675;28;20417;-74
2022/10/04 01:12:50;;;;;;;15.63;5.50;;;;;;;11.00;78.55;101088.88;5058878;28;20938;-74
2022/10/04 01:15:26;;;;;;;15.98;4.97;;;;;;;11.02;78.53;101086.78;5050294;28;20410;-74
2022/10/04 01:18:10;;;;;;;7.90;4.43;;;;;;;10.98;78.56;101085.59;5057480;28;20381;-74
2022/10/04 01:20:39;;;;;;;9.88;4.55;;;;;;;10.93;78.60;101088.19;5059485;28;20397;-74
2022/10/04 01:23:08;;;;;;;9.75;4.80;;;;;;;10.93;78.79;101085.47;5058383;28;20464;-74
2022/10/04 01:25:46;;;;;;;11.77;4.95;;;;;;;10.90;78.76;101084.03;5054278;28;20486;-74
2022/10/04 01:28:11;;;;;;;9.00;4.95;;;;;;;10.87;78.93;101079.06;5053109;28;20748;-74
2022/10/04 01:30:37;;;;;;;9.95;4.90;;;;;;;10.84;79.11;101082.25;5060712;28;20383;-74
2022/10/04 01:33:05;;;;;;;9.23;4.73;;;;;;;10.86;78.91;101076.59;5057143;28;20425;-74
2022/10/04 01:35:32;;;;;;;10.57;4.72;;;;;;;10.82;78.93;101070.81;5038895;28;20419;-74
2022/10/04 01:37:58;;;;;;;7.80;4.55;;;;;;;10.86;78.79;101069.31;5056745;28;20883;-74
2022/10/04 01:40:23;;;;;;;14.90;5.33;;;;;;;10.88;78.95;101069.06;5055898;28;20507;-74
2022/10/04 01:42:53;;;;;;;10.80;4.67;;;;;;;10.84;78.60;101063.28;5053925;28;20413;-74
2022/10/04 01:45:19;;;;;;;13.75;4.47;;;;;;;10.82;78.80;101059.97;5048350;28;20392;-74
2022/10/04 01:48:02;;;;;;;16.47;5.27;;;;;;;10.84;78.58;101065.16;5056730;28;20389;-74
2022/10/04 01:50:32;;;;;;;13.63;4.90;;;;;;;10.83;78.75;101061.59;5054590;28;20407;-74
2022/10/04 01:53:14;;;;;;;12.60;5.50;;;;;;;10.82;78.65;101056.44;5055811;28;20432;-74
2022/10/04 01:55:43;;;;;;;16.13;5.07;;;;;;;10.79;78.68;101049.59;5056699;28;20438;-74
2022/10/04 01:58:14;;;;;;;10.23;4.35;;;;;;;10.77;78.92;101048.16;5058946;28;20387;-74
2022/10/04 02:00:47;;;;;;;8.23;5.07;;;;;;;10.78;78.73;101036.25;5044702;28;20394;-74
2022/10/04 02:03:27;;;;;;;10.93;4.83;;;;;;;10.80;78.49;101037.66;5054898;28;20413;-74
2022/10/04 02:05:58;;;;;;;10.75;4.53;;;;;;;10.80;78.56;101032.25;5059077;28;20417;-74
2022/10/04 02:08:31;;;;;;;14.38;4.93;;;;;;;10.76;78.50;101036.50;5056651;28;20405;-74
2022/10/04 02:10:59;;;;;;;10.20;4.75;;;;;;;10.75;78.36;101034.00;5056561;28;20396;-73
2022/10/04 02:13:28;;;;;;;9.43;4.53;;;;;;;10.73;78.13;101044.28;5021254;28;20415;-74
2022/10/04 02:15:55;;;;;;;10.18;5.22;;;;;;;10.72;78.19;101045.31;5056500;28;20388;-75
2022/10/04 02:18:22;;;;;;;6.60;4.50;;;;;;;10.72;78.20;101046.16;5048686;28;20389;-74
2022/10/04 02:20:49;;;;;;;6.10;4.53;;;;;;;10.70;78.32;101045.53;5056250;28;20479;-74
2022/10/04 02:23:18;;;;;;;9.27;4.40;;;;;;;10.67;77.94;101043.28;5048658;28;20567;-74
2022/10/04 02:25:43;;;;;;;10.27;5.05;;;;;;;10.63;78.67;101034.00;5052467;28;20399;-74
2022/10/04 02:28:12;;;;;;;6.73;4.30;;;;;;;10.64;78.83;101038.34;5055923;28;20486;-74
2022/10/04 02:30:41;;;;;;;10.02;5.82;;;;;;;10.62;78.98;101039.63;5056031;28;20872;-74
2022/10/04 02:33:07;;;;;;;10.38;5.88;;;;;;;10.57;79.23;101034.88;5045853;28;20436;-74
2022/10/04 02:35:42;;;;;;;16.52;6.45;;;;;;;10.56;79.40;101027.84;5050269;28;20412;-74
2022/10/04 02:38:27;;;;;;;19.10;6.15;;;;;;;10.55;79.33;101030.75;5043383;28;20477;-74
2022/10/04 02:41:11;;;;;;;31.37;7.17;;;;;;;10.50;79.73;101041.50;5055769;28;20389;-73
2022/10/04 02:44:08;;;;;;;37.35;7.35;;;;;;;10.48;80.36;101039.00;5042404;28;20767;-74
2022/10/04 02:47:05;;;;;;;22.00;6.80;;;;;;;10.51;80.35;101027.69;5049546;28;20405;-74
2022/10/04 02:49:38;;;;;;;36.65;7.15;;;;;;;10.51;80.73;101032.28;5053560;28;20771;-74
2022/10/04 02:52:15;;;;;;;27.67;6.67;;;;;;;10.48;81.15;101028.16;5051238;28;20413;-74
2022/10/04 02:54:48;;;;;;;55.63;7.13;;;;;;;10.43;81.50;101028.03;5054353;28;20485;-74
2022/10/04 02:57:18;;;;;;;26.10;7.38;;;;;;;10.44;81.82;101034.28;5052345;28;20471;-74
2022/10/04 02:59:43;;;;;;;69.03;7.53;;;;;;;10.46;82.06;101030.28;5055678;28;20427;-74
2022/10/04 03:02:22;;;;;;;25.42;6.13;;;;;;;10.50;81.74;101028.75;5046819;28;20405;-74
2022/10/04 03:04:49;;;;;;;105.10;10.95;;;;;;;10.50;81.89;101025.22;5057176;28;20378;-74
2022/10/04 03:07:15;;;;;;;34.70;12.15;;;;;;;10.49;82.44;101024.41;5056808;28;20408;-74
2022/10/04 03:09:41;;;;;;;43.03;14.63;;;;;;;10.48;82.33;101025.44;5054988;28;20540;-74
2022/10/04 03:12:11;;;;;;;100.53;14.25;;;;;;;10.45;82.81;101028.63;5053174;28;21601;-74
2022/10/04 03:14:37;;;;;;;104.17;14.80;;;;;;;10.50;82.37;101028.75;5056822;28;20382;-74
2022/10/04 03:17:04;;;;;;;45.00;11.02;;;;;;;10.54;82.24;101027.22;5057231;28;20422;-74
2022/10/04 03:19:30;;;;;;;51.65;9.98;;;;;;;10.52;81.96;101032.06;5055161;28;20451;-73
2022/10/04 03:22:00;;;;;;;49.90;9.10;;;;;;;10.44;82.50;101031.56;5053378;28;20926;-74
2022/10/04 03:24:35;;;;;;;45.95;8.77;;;;;;;10.39;83.17;101022.25;5040268;28;20416;-74
2022/10/04 03:27:05;;;;;;;41.00;8.07;;;;;;;10.43;83.08;101016.38;5054145;28;20859;-74
2022/10/04 03:29:32;;;;;;;39.78;8.07;;;;;;;10.51;83.09;101018.72;5055050;28;20441;-73
2022/10/04 03:32:00;;;;;;;25.33;8.52;;;;;;;10.57;82.90;101007.00;5048900;28;20439;-74
2022/10/04 03:34:37;;;;;;;45.13;7.93;;;;;;;10.56;82.92;101003.44;5057047;28;20392;-74
2022/10/04 03:37:07;;;;;;;51.70;8.10;;;;;;;10.55;83.07;101012.63;5043168;28;20421;-74
2022/10/04 03:39:37;;;;;;;46.38;7.25;;;;;;;10.53;83.37;101016.63;5054974;28;20392;-74
2022/10/04 03:42:14;;;;;;;48.70;8.75;;;;;;;10.50;83.37;101014.38;5052369;28;20431;-74
2022/10/04 03:44:41;;;;;;;27.10;7.60;;;;;;;10.51;83.24;101011.44;5056316;28;20449;-74
2022/10/04 03:47:10;;;;;;;61.10;8.65;;;;;;;10.51;83.29;101002.47;5054963;28;20381;-74
2022/10/04 03:49:36;;;;;;;24.85;7.65;;;;;;;10.53;82.83;101017.47;5054887;28;20418;-74
2022/10/04 03:52:03;;;;;;;24.58;7.53;;;;;;;10.55;83.21;101022.63;5054934;28;20446;-74
2022/10/04 03:54:30;;;;;;;21.98;7.43;;;;;;;10.56;83.45;101017.00;5056139;28;20474;-74
2022/10/04 03:56:57;;;;;;;37.03;8.82;;;;;;;10.60;83.31;101017.38;5053683;28;20780;-74
2022/10/04 03:59:25;;;;;;;19.02;8.57;;;;;;;10.63;83.24;101016.91;5047254;28;20399;-74
2022/10/04 04:02:05;;;;;;;45.33;9.15;;;;;;;10.62;83.11;101017.94;5053451;28;20900;-74
2022/10/04 04:04:49;;;;;;;31.17;7.95;;;;;;;10.59;83.35;101013.00;5046462;28;20374;-74
2022/10/04 04:07:33;;;;;;;32.15;7.55;;;;;;;10.58;83.37;101028.44;5058430;28;20421;-74
2022/10/04 04:10:22;;;;;;;19.45;8.27;;;;;;;10.58;83.10;101025.72;5055194;28;20429;-74
2022/10/04 04:13:14;;;;;;;15.85;7.75;;;;;;;10.48;83.49;101020.03;5048156;28;20414;-74
2022/10/04 04:15:42;;;;;;;53.53;9.63;;;;;;;10.50;83.52;101027.94;5056590;28;20403;-74
2022/10/04 04:18:15;;;;;;;15.18;7.95;;;;;;;10.52;83.34;101029.34;5045878;28;20466;-74
2022/10/04 04:20:42;;;;;;;40.60;7.53;;;;;;;10.48;83.67;101027.31;5058470;28;20436;-74
2022/10/04 04:23:13;;;;;;;20.83;7.00;;;;;;;10.41;83.53;101030.13;5056408;28;20413;-74
2022/10/04 04:25:53;;;;;;;23.45;7.00;;;;;;;10.44;83.56;101035.09;5061898;28;20392;-74
2022/10/04 04:28:47;;;;;;;15.98;7.10;;;;;;;10.48;83.56;101032.75;5047599;28;20884;-74
2022/10/04 04:31:54;;;;;;;49.55;9.32;;;;;;;10.50;83.35;101031.47;5056426;28;20401;-74
2022/10/04 04:34:26;;;;;;;56.83;9.35;;;;;;;10.52;83.24;101029.34;4973621;28;20449;-74
2022/10/04 04:36:57;;;;;;;19.27;8.35;;;;;;;10.53;83.30;101031.00;5043135;28;20389;-74
2022/10/04 04:39:40;;;;;;;35.33;9.17;;;;;;;10.52;83.20;101029.34;5060251;28;20400;-74
2022/10/04 04:42:23;;;;;;;23.60;7.93;;;;;;;10.47;83.49;101023.81;5047844;28;20377;-74
2022/10/04 04:44:52;;;;;;;14.10;7.75;;;;;;;10.43;83.63;101024.50;5057972;28;20420;-74
2022/10/04 04:47:45;;;;;;;15.17;6.33;;;;;;;10.51;83.43;101024.16;5060848;28;20388;-74
2022/10/04 04:50:17;;;;;;;18.45;7.30;;;;;;;10.52;83.34;101033.94;5040040;28;20476;-73
2022/10/04 04:52:47;;;;;;;34.80;7.40;;;;;;;10.52;83.31;101034.78;5054716;28;20385;-74
2022/10/04 04:55:38;;;;;;;28.98;8.15;;;;;;;10.49;83.43;101037.13;5054374;28;20379;-74
2022/10/04 04:58:04;;;;;;;12.43;6.82;;;;;;;10.48;83.83;101030.88;5043319;28;20416;-74
2022/10/04 05:00:37;;;;;;;35.80;7.50;;;;;;;10.47;83.67;101028.41;5051074;28;20488;-74
2022/10/04 05:03:06;;;;;;;21.50;7.70;;;;;;;10.38;83.75;101031.41;5050700;28;20898;-74
2022/10/04 05:05:33;;;;;;;16.27;7.05;;;;;;;10.33;83.90;101039.41;5050694;28;20405;-74
2022/10/04 05:08:21;;;;;;;20.92;7.18;;;;;;;10.29;84.54;101043.63;5043858;28;20421;-74
2022/10/04 05:10:56;;;;;;;62.22;8.98;;;;;;;10.34;84.24;101049.19;5032987;28;20424;-74
2022/10/04 05:13:27;;;;;;;27.25;7.85;;;;;;;10.33;84.41;101046.72;5044729;28;20403;-74
2022/10/04 05:15:57;;;;;;;38.53;8.87;;;;;;;10.32;84.25;101042.34;5045862;28;20862;-74
2022/10/04 05:18:32;;;;;;;32.43;9.20;;;;;;;10.31;84.62;101055.06;5047815;28;20795;-74
2022/10/04 05:21:28;;;;;;;13.23;7.85;;;;;;;10.43;84.37;101051.59;5041692;28;20399;-74
2022/10/04 05:23:57;;;;;;;12.18;8.10;;;;;;;10.51;84.05;101054.78;5046784;28;20401;-74
2022/10/04 05:26:29;;;;;;;12.40;8.68;;;;;;;10.44;84.20;101055.97;5037132;28;20447;-74
2022/10/04 05:29:00;;;;;;;36.00;8.52;;;;;;;10.37;84.10;101056.03;5036782;28;20770;-74
2022/10/04 05:32:07;;;;;;;13.82;8.43;;;;;;;10.38;84.24;101063.09;5039553;28;20414;-73
2022/10/04 05:34:40;;;;;;;21.42;8.60;;;;;;;10.39;84.10;101062.06;5038239;28;20822;-74
2022/10/04 05:37:23;;;;;;;15.27;8.65;;;;;;;10.39;84.32;101062.06;5055013;28;20393;-74
2022/10/04 05:40:00;;;;;;;15.87;8.90;;;;;;;10.41;84.34;101059.94;5036216;28;20469;-74
2022/10/04 05:42:45;;;;;;;11.27;8.10;;;;;;;10.46;84.20;101064.66;5042137;28;20461;-74
2022/10/04 05:45:16;;;;;;;19.10;9.30;;;;;;;10.49;83.99;101067.75;5056893;28;20394;-74
2022/10/04 05:47:42;;;;;;;27.27;9.18;;;;;;;10.49;83.88;101070.47;5056818;28;20394;-75
2022/10/04 05:50:22;;;;;;;15.63;8.15;;;;;;;10.44;84.03;101066.78;5056686;28;20771;-74
2022/10/04 05:52:50;;;;;;;19.95;9.45;;;;;;;10.46;83.78;101068.22;5045431;28;20385;-74
2022/10/04 05:55:27;;;;;;;19.05;8.85;;;;;;;10.49;83.67;101065.03;5056703;28;20385;-75
2022/10/04 05:58:17;;;;;;;17.08;8.60;;;;;;;10.52;83.43;101064.59;5056713;28;20406;-74
2022/10/04 06:00:52;;;;;;;14.25;8.70;;;;;;;10.48;83.56;101065.25;5049147;28;20493;-74
2022/10/04 06:03:52;;;;;;;18.70;9.40;;;;;;;10.52;83.53;101061.88;5056538;28;20385;-74
2022/10/04 06:06:36;;;;;;;21.37;9.10;;;;;;;10.57;83.10;101061.19;5043495;28;20411;-75
2022/10/04 06:09:10;;;;;;;20.67;9.20;;;;;;;10.58;83.11;101062.81;5052329;28;20457;-74
2022/10/04 06:12:00;;;;;;;15.13;8.73;;;;;;;10.59;82.82;101064.50;5054199;28;20414;-74
2022/10/04 06:15:07;;;;;;;23.50;10.07;;;;;;;10.61;82.84;101065.06;5044109;28;21001;-74
2022/10/04 06:18:01;;;;;;;20.35;9.07;;;;;;;10.61;82.46;101062.38;5048798;28;20420;-76
2022/10/04 06:20:41;;;;;;;11.88;7.60;;;;;;;10.59;82.56;101061.78;5036783;28;20402;-76
2022/10/04 06:23:13;;;;;;;19.27;8.27;;;;;;;10.56;82.40;101045.97;5049436;28;21031;-76
2022/10/04 06:26:03;;;;;;;19.45;8.60;;;;;;;10.59;82.18;101050.94;5044718;28;20425;-74
2022/10/04 06:28:32;;;;;;;18.23;8.50;;;;;;;10.63;82.08;101049.44;5055484;28;20761;-74
2022/10/04 06:31:17;;;;;;;13.00;7.60;;;;;;;10.68;81.76;101055.78;5054685;28;20491;-74
2022/10/04 06:34:02;;;;;;;17.38;8.80;;;;;;;10.68;81.82;101054.97;5054572;28;20399;-73
2022/10/04 06:36:43;;;;;;;14.20;9.05;;;;;;;10.69;82.01;101045.78;5053599;28;20406;-73
2022/10/04 06:39:27;;;;;;;42.00;10.17;;;;;;;10.70;81.77;101045.53;5057538;28;20404;-73
2022/10/04 06:42:32;;;;;;;28.90;10.60;;;;;;;10.75;81.85;101050.28;5046450;28;20894;-74
2022/10/04 06:45:16;;;;;;;16.02;9.85;;;;;;;10.72;82.01;101054.28;5056840;28;20389;-74
2022/10/04 06:47:53;;;;;;;22.00;9.57;;;;;;;10.60;82.34;101053.44;5054806;28;20810;-73
2022/10/04 06:50:34;;;;;;;15.48;9.20;;;;;;;10.62;82.24;101061.31;5053832;28;20412;-74
2022/10/04 06:53:29;;;;;;;15.65;9.18;;;;;;;10.49;82.76;101065.03;5056652;28;20385;-74
2022/10/04 06:56:06;;;;;;;15.10;9.00;;;;;;;10.54;82.77;101069.78;5044750;28;20416;-74
2022/10/04 06:58:49;;;;;;;14.52;9.48;;;;;;;10.50;82.50;101071.28;5055661;28;20388;-74
2022/10/04 07:01:28;;;;;;;14.88;9.75;;;;;;;10.39;83.37;101081.03;5053601;28;20395;-73
2022/10/04 07:04:29;;;;;;;19.10;8.97;;;;;;;10.50;83.21;101074.84;5055512;28;20440;-73
2022/10/04 07:07:34;;;;;;;17.73;8.87;;;;;;;10.47;83.38;101074.47;5056924;28;20416;-74
2022/10/04 07:10:18;;;;;;;17.80;10.25;;;;;;;10.45;83.54;101076.56;5048209;28;20405;-74
2022/10/04 07:12:52;;;;;;;27.23;8.20;;;;;;;10.46;83.79;101067.38;5040361;28;20392;-74
2022/10/04 07:15:31;;;;;;;18.45;7.45;;;;;;;10.45;83.44;101066.56;5043198;28;20393;-74
2022/10/04 07:18:02;;;;;;;9.48;6.10;;;;;;;10.39;84.07;101084.56;5048192;28;20413;-74
2022/10/04 07:20:32;;;;;;;21.10;6.22;;;;;;;10.51;83.29;101079.19;5057164;28;20424;-74
2022/10/04 07:23:04;;;;;;;8.52;6.20;;;;;;;10.57;83.05;101082.88;5052459;28;20393;-74
2022/10/04 07:25:35;;;;;;;11.40;5.70;;;;;;;10.59;83.17;101083.47;5051343;28;20457;-74
2022/10/04 07:31:13;;;;;;;15.25;6.18;;;;;;;10.63;82.73;101085.50;5053551;28;20430;-74
2022/10/04 07:33:53;;;;;;;7.27;5.50;;;;;;;10.74;82.63;101090.09;5044283;28;20413;-73
2022/10/04 07:36:23;;;;;;;7.50;5.63;;;;;;;10.70;82.79;101082.69;5037398;28;20447;-73
2022/10/04 07:39:09;;;;;;;16.57;6.13;;;;;;;10.81;82.67;101087.31;5059567;28;20886;-74
2022/10/04 07:42:06;;;;;;;10.32;6.28;;;;;;;10.86;82.05;101096.41;5055769;28;20433;-74
2022/10/04 07:44:38;;;;;;;10.27;6.55;;;;;;;10.83;82.12;101098.75;5037988;28;20410;-74
2022/10/04 07:47:25;;;;;;;8.85;7.00;;;;;;;10.86;82.78;101099.13;5041321;28;20404;-74
2022/10/04 07:49:52;;;;;;;5.87;5.33;;;;;;;10.98;81.96;101104.56;5059796;28;20409;-73
2022/10/04 07:52:30;;;;;;;6.88;6.18;;;;;;;11.02;81.93;101103.06;5061665;28;20476;-73
2022/10/04 07:55:12;;;;;;;7.80;7.05;;;;;;;11.03;82.09;101104.69;5042873;28;20423;-74
2022/10/04 07:57:52;;;;;;;14.23;7.33;;;;;;;11.06;82.21;101098.84;5055202;28;20726;-74
2022/10/04 08:00:21;;;;;;;13.45;7.57;;;;;;;11.08;81.73;101098.59;5042453;28;20391;-74
2022/10/04 08:03:12;;;;;;;14.52;7.95;;;;;;;11.04;81.87;101100.09;5058788;28;20401;-73
2022/10/04 08:05:45;;;;;;;7.78;6.97;;;;;;;11.02;82.19;101092.22;5055712;28;20449;-74
2022/10/04 08:08:44;;;;;;;8.90;7.43;;;;;;;11.06;82.11;101090.69;5046632;28;20744;-74
2022/10/04 08:11:26;;;;;;;8.75;7.90;;;;;;;11.04;82.40;101084.66;5058651;28;20396;-74
2022/10/04 08:14:08;;;;;;;14.15;7.68;;;;;;;11.10;81.84;101082.91;5049932;28;20453;-74
2022/10/04 08:16:40;;;;;;;12.27;8.43;;;;;;;11.03;81.97;101087.63;5039281;28;20442;-74
2022/10/04 08:19:56;;;;;;;12.75;8.85;;;;;;;11.06;82.33;101101.53;5035627;28;20404;-74
2022/10/04 08:22:53;;;;;;;13.98;8.82;;;;;;;11.26;81.91;101085.75;5013816;28;20868;-74
2022/10/04 08:25:31;;;;;;;10.23;8.95;;;;;;;11.42;81.15;101089.69;5043442;28;20415;-74
2022/10/04 08:31:34;;;;;;;11.25;8.98;;;;;;;11.56;80.76;101090.28;5054485;28;20501;-74
2022/10/04 08:34:31;;;;;;;14.85;9.98;;;;;;;11.59;80.51;101092.53;5038263;28;20460;-73
2022/10/04 08:37:19;;;;;;;13.02;9.13;;;;;;;11.66;80.10;101104.06;5018413;28;20387;-74
2022/10/04 08:40:07;;;;;;;15.73;8.57;;;;;;;11.70;79.84;101097.09;5057438;28;20884;-73
2022/10/04 08:43:21;;;;;;;8.68;7.70;;;;;;;11.68;79.75;101104.66;5046545;28;20404;-73
2022/10/04 08:46:14;;;;;;;11.52;8.40;;;;;;;11.62;80.33;101109.16;5049286;28;20397;-73
2022/10/04 08:49:10;;;;;;;8.63;7.82;;;;;;;11.62;80.41;101113.75;5041035;28;20418;-73
2022/10/04 08:52:03;;;;;;;8.15;7.25;;;;;;;11.72;80.36;101106.69;5057663;28;20481;-73
2022/10/04 08:55:05;;;;;;;8.73;7.82;;;;;;;11.85;79.31;101117.34;5052376;28;20441;-74
2022/10/04 08:57:49;;;;;;;10.63;7.88;;;;;;;12.14;78.48;101114.69;5039622;28;20390;-74
2022/10/04 09:00:55;;;;;;;14.00;8.15;;;;;;;12.34;77.61;101102.38;5057409;28;20926;-73
2022/10/04 09:03:30;;;;;;;13.50;8.73;;;;;;;12.51;77.20;101090.72;5058017;28;20428;-73
2022/10/04 09:06:06;;;;;;;8.18;7.38;;;;;;;12.60;76.88;101089.25;5048726;28;20402;-73
2022/10/04 09:09:10;;;;;;;8.02;7.18;;;;;;;12.58;76.53;101086.78;5043011;28;20792;-73
2022/10/04 09:12:20;;;;;;;12.23;7.70;;;;;;;12.69;76.55;101090.53;5058811;28;20555;-73
2022/10/04 09:15:24;;;;;;;7.93;6.90;;;;;;;12.60;76.49;101081.94;5052908;28;20412;-73
2022/10/04 09:18:09;;;;;;;9.65;8.65;;;;;;;12.38;77.62;101094.56;5047417;28;20406;-73
2022/10/04 09:21:00;;;;;;;10.97;9.63;;;;;;;12.24;78.56;101106.75;5041340;28;20506;-73
2022/10/04 09:23:28;;;;;;;11.77;9.10;;;;;;;12.23;78.46;101105.94;5038422;28;20424;-73
2022/10/04 09:26:18;;;;;;;12.88;10.52;;;;;;;12.37;78.43;101103.78;5057221;28;20472;-73
2022/10/04 09:28:52;;;;;;;10.77;9.23;;;;;;;12.51;77.93;101096.16;5046914;28;20419;-73
2022/10/04 09:31:42;;;;;;;11.10;9.10;;;;;;;12.69;77.36;101085.91;5047493;28;20480;-73
2022/10/04 09:34:40;;;;;;;10.32;8.90;;;;;;;12.82;76.44;101079.34;5051057;28;20391;-73
2022/10/04 09:37:21;;;;;;;11.07;9.00;;;;;;;12.81;76.27;101081.22;5046526;28;20393;-73
2022/10/04 09:40:18;;;;;;;9.97;8.70;;;;;;;12.81;76.48;101081.22;5034397;28;20405;-73
2022/10/04 09:43:05;;;;;;;11.18;8.93;;;;;;;12.78;77.18;101081.72;5056473;28;20385;-73
2022/10/04 09:45:43;;;;;;;9.70;8.80;;;;;;;13.23;76.81;101083.63;5038928;28;20394;-73
2022/10/04 09:48:21;;;;;;;9.88;9.05;;;;;;;13.70;75.15;101095.81;5058560;28;20400;-73
2022/10/04 09:50:58;;;;;;;13.70;9.65;;;;;;;13.78;73.57;101095.38;5045567;28;20967;-73
2022/10/04 09:53:45;;;;;;;10.70;8.88;;;;;;;13.75;73.50;101095.06;5065647;28;20758;-73
2022/10/04 09:56:31;;;;;;;10.82;9.32;;;;;;;14.07;72.71;101096.06;5052865;28;20499;-74
2022/10/04 09:59:17;;;;;;;11.23;9.30;;;;;;;14.36;72.01;101086.63;5033649;28;20805;-74
2022/10/04 10:02:11;;;;;;;11.10;10.00;;;;;;;15.03;70.65;101095.28;5054803;28;20390;-74
2022/10/04 10:04:48;;;;;;;11.18;8.98;;;;;;;15.80;68.53;101092.09;5045965;28;20439;-74
2022/10/04 10:07:16;;;;;;;10.38;8.32;;;;;;;16.01;67.36;101090.28;5038469;28;20413;-73
2022/10/04 10:16:17;;;;;;;13.93;8.43;;;;;;;16.02;67.86;101094.69;5066394;28;20386;-75
2022/10/04 10:18:49;;;;;;;13.63;8.90;;;;;;;16.71;66.53;101089.78;5050242;28;20406;-75
2022/10/04 10:21:26;;;;;;;14.15;8.15;;;;;;;17.73;63.97;101094.22;5046073;28;20753;-74
2022/10/04 10:24:06;;;;;;;11.77;8.10;;;;;;;18.49;61.85;101089.31;5039773;28;20423;-74
2022/10/04 10:26:51;;;;;;;7.63;6.93;;;;;;;19.09;59.43;101077.16;5054428;28;20404;-74
2022/10/04 10:29:35;;;;;;;7.70;6.90;;;;;;;19.20;57.93;101077.09;5052988;28;20901;-74
2022/10/04 10:32:19;;;;;;;7.85;6.90;;;;;;;19.53;56.82;101085.31;5043006;28;20433;-76
2022/10/04 10:35:00;;;;;;;7.80;7.07;;;;;;;20.56;53.90;101081.16;5041896;28;20465;-77
2022/10/04 10:37:52;;;;;;;6.63;5.93;;;;;;;21.94;50.49;101073.97;5045887;28;20399;-75
2022/10/04 10:40:39;;;;;;;6.30;5.80;;;;;;;21.88;49.98;101082.63;5031061;28;20417;-74
2022/10/04 10:43:22;;;;;;;8.10;6.75;;;;;;;22.07;49.03;101083.38;5031578;28;20403;-74
2022/10/04 10:45:55;;;;;;;6.38;5.60;;;;;;;22.28;48.25;101078.25;5033658;28;20406;-74
2022/10/04 10:48:26;;;;;;;8.10;5.90;;;;;;;22.58;47.51;101080.38;5031413;28;20879;-76
2022/10/04 10:51:29;;;;;;;8.13;6.80;;;;;;;22.91;45.81;101084.63;5032121;28;20436;-75
2022/10/04 10:54:32;;;;;;;8.45;6.13;;;;;;;22.72;46.34;101072.94;5033005;28;20395;-75
2022/10/04 10:57:15;;;;;;;9.40;6.85;;;;;;;22.13;47.20;101068.34;5031430;28;20506;-74
2022/10/04 11:00:08;;;;;;;7.28;5.95;;;;;;;22.07;47.79;101059.34;5033753;28;20401;-75
2022/10/04 11:03:10;;;;;;;8.40;5.53;;;;;;;21.48;49.82;101056.59;5033043;28;20399;-75
2022/10/04 11:06:12;;;;;;;7.78;6.03;;;;;;;21.15;50.97;101055.78;5018275;28;20488;-74
2022/10/04 11:08:56;;;;;;;5.93;5.43;;;;;;;22.19;49.12;101047.81;5034363;28;20793;-74
2022/10/04 11:11:59;;;;;;;8.93;5.82;;;;;;;22.51;48.18;101049.59;5034341;28;20402;-74
2022/10/04 11:14:47;;;;;;;9.55;5.93;;;;;;;21.05;50.37;101048.47;5034243;28;20484;-74
2022/10/04 11:17:24;;;;;;;10.10;5.60;;;;;;;20.53;52.60;101051.47;5031428;28;20560;-74
2022/10/04 11:20:23;;;;;;;7.90;4.80;;;;;;;22.00;49.41;101039.63;5033831;28;20744;-74
2022/10/04 11:23:19;;;;;;;6.40;4.93;;;;;;;22.07;48.96;101034.50;5031505;28;20502;-74
2022/10/04 11:26:06;;;;;;;7.53;5.45;;;;;;;23.02;46.48;101038.22;5032403;28;21093;-74
2022/10/04 11:29:09;;;;;;;5.30;4.82;;;;;;;23.12;45.85;101026.88;5019045;28;20417;-74
2022/10/04 11:31:56;;;;;;;6.20;5.60;;;;;;;22.51;46.96;101022.78;5031768;28;20470;-74
2022/10/04 11:34:49;;;;;;;6.95;5.35;;;;;;;22.90;46.19;101024.13;5029396;28;20495;-74
2022/10/04 11:37:35;;;;;;;5.40;4.78;;;;;;;21.66;48.94;101022.63;5038209;28;20896;-74
2022/10/04 11:40:12;;;;;;;8.07;4.18;;;;;;;21.08;50.11;101020.31;5030924;28;20489;-74
2022/10/04 11:42:59;;;;;;;8.05;5.38;;;;;;;20.69;51.06;101023.41;5030586;28;20409;-74
2022/10/04 11:45:56;;;;;;;7.78;4.80;;;;;;;20.70;51.42;101022.31;5031833;28;20484;-74
2022/10/04 11:48:37;;;;;;;9.52;4.22;;;;;;;20.84;50.97;101022.38;5031655;28;20407;-75
2022/10/04 11:51:16;;;;;;;4.57;4.00;;;;;;;21.32;50.06;101025.72;5031766;28;20488;-74
2022/10/04 11:54:02;;;;;;;5.10;4.40;;;;;;;21.76;48.82;101014.16;5032963;28;20393;-74
2022/10/04 11:56:55;;;;;;;5.70;4.93;;;;;;;21.51;49.18;101023.72;5032017;28;20992;-74
2022/10/04 11:59:40;;;;;;;4.95;4.15;;;;;;;21.29;49.32;101018.06;5032225;28;20405;-74
2022/10/04 12:02:25;;;;;;;6.32;4.82;;;;;;;20.92;50.48;101018.09;5032171;28;20409;-74
2022/10/04 12:04:58;;;;;;;5.80;4.78;;;;;;;20.34;51.45;101017.59;5031455;28;20414;-74
2022/10/04 12:07:33;;;;;;;6.72;4.20;;;;;;;19.74;53.04;101016.38;5033875;28;20460;-75
2022/10/04 12:10:17;;;;;;;6.60;4.30;;;;;;;19.36;54.23;101009.91;5033707;28;20898;-75
2022/10/04 12:12:52;;;;;;;4.95;4.45;;;;;;;19.03;55.47;101014.31;5031824;28;20882;-75
2022/10/04 12:15:37;;;;;;;5.60;4.43;;;;;;;18.83;55.81;101012.56;5032547;28;20403;-75
2022/10/04 12:18:14;;;;;;;7.25;4.88;;;;;;;18.71;56.58;101009.31;5033683;28;20434;-74
2022/10/04 12:21:17;;;;;;;7.55;4.90;;;;;;;18.62;57.42;101005.56;5040469;28;20405;-74
2022/10/04 12:24:08;;;;;;;7.07;4.72;;;;;;;18.65;57.24;101005.81;5048840;28;20446;-74
2022/10/04 12:27:16;;;;;;;9.20;4.93;;;;;;;18.62;57.43;100994.56;5041653;28;20401;-74
2022/10/04 12:30:04;;;;;;;5.68;5.07;;;;;;;18.62;57.73;100992.66;5042749;28;20420;-75